sensor_id;sensor_type;location;lat;lon;timestamp;P1;durP1;ratioP1;P2;durP2;ratioP2
34359;SDS011;20624;55.870;26.506;2023-04-24T00:00:11;7.43;;;1.65;;
34359;SDS011;20624;55.870;26.506;2023-04-24T00:02:44;7.18;;;1.77;;
34359;SDS011;20624;55.870;26.506;2023-04-24T00:05:15;4.70;;;1.33;;
34359;SDS011;20624;55.870;26.506;2023-04-24T00:07:44;6.60;;;1.98;;
34359;SDS011;20624;55.870;26.506;2023-04-24T00:10:11;6.55;;;1.77;;
34359;SDS011;20624;55.870;26.506;2023-04-24T00:12:39;6.78;;;1.65;;
34359;SDS011;20624;55.870;26.506;2023-04-24T00:15:07;11.05;;;2.42;;
34359;SDS011;20624;55.870;26.506;2023-04-24T00:17:35;6.80;;;1.63;;
34359;SDS011;20624;55.870;26.506;2023-04-24T00:20:04;5.65;;;1.73;;
34359;SDS011;20624;55.870;26.506;2023-04-24T00:22:33;5.63;;;1.70;;
34359;SDS011;20624;55.870;26.506;2023-04-24T00:25:01;4.93;;;1.67;;
34359;SDS011;20624;55.870;26.506;2023-04-24T00:27:29;9.32;;;2.30;;
34359;SDS011;20624;55.870;26.506;2023-04-24T00:29:56;6.70;;;1.90;;
34359;SDS011;20624;55.870;26.506;2023-04-24T00:32:24;4.05;;;1.25;;
34359;SDS011;20624;55.870;26.506;2023-04-24T00:34:52;7.70;;;2.00;;
34359;SDS011;20624;55.870;26.506;2023-04-24T00:37:20;11.85;;;2.40;;
34359;SDS011;20624;55.870;26.506;2023-04-24T00:39:48;9.20;;;2.17;;
34359;SDS011;20624;55.870;26.506;2023-04-24T00:42:16;7.75;;;1.90;;
34359;SDS011;20624;55.870;26.506;2023-04-24T00:44:44;5.50;;;1.60;;
34359;SDS011;20624;55.870;26.506;2023-04-24T00:47:11;11.40;;;2.45;;
34359;SDS011;20624;55.870;26.506;2023-04-24T00:49:40;5.78;;;1.83;;
34359;SDS011;20624;55.870;26.506;2023-04-24T00:52:08;6.03;;;1.65;;
34359;SDS011;20624;55.870;26.506;2023-04-24T00:54:37;11.65;;;2.28;;
34359;SDS011;20624;55.870;26.506;2023-04-24T00:57:04;6.95;;;1.80;;
34359;SDS011;20624;55.870;26.506;2023-04-24T00:59:32;8.48;;;2.05;;
34359;SDS011;20624;55.870;26.506;2023-04-24T01:02:03;10.45;;;2.05;;
34359;SDS011;20624;55.870;26.506;2023-04-24T01:04:32;5.05;;;1.77;;
34359;SDS011;20624;55.870;26.506;2023-04-24T01:07:00;8.63;;;1.98;;
34359;SDS011;20624;55.870;26.506;2023-04-24T01:09:28;6.75;;;1.77;;
34359;SDS011;20624;55.870;26.506;2023-04-24T01:11:57;3.05;;;1.10;;
34359;SDS011;20624;55.870;26.506;2023-04-24T01:14:25;5.43;;;1.63;;
34359;SDS011;20624;55.870;26.506;2023-04-24T01:16:53;9.30;;;2.42;;
34359;SDS011;20624;55.870;26.506;2023-04-24T01:19:21;3.85;;;1.52;;
34359;SDS011;20624;55.870;26.506;2023-04-24T01:21:50;3.72;;;1.40;;
34359;SDS011;20624;55.870;26.506;2023-04-24T01:24:19;5.68;;;2.00;;
34359;SDS011;20624;55.870;26.506;2023-04-24T01:26:46;4.70;;;1.60;;
34359;SDS011;20624;55.870;26.506;2023-04-24T01:29:14;6.53;;;1.88;;
34359;SDS011;20624;55.870;26.506;2023-04-24T01:31:42;4.70;;;1.70;;
34359;SDS011;20624;55.870;26.506;2023-04-24T01:34:10;6.38;;;1.70;;
34359;SDS011;20624;55.870;26.506;2023-04-24T01:36:38;6.65;;;1.88;;
34359;SDS011;20624;55.870;26.506;2023-04-24T01:39:06;5.93;;;1.80;;
34359;SDS011;20624;55.870;26.506;2023-04-24T01:41:37;6.65;;;2.10;;
34359;SDS011;20624;55.870;26.506;2023-04-24T01:44:05;9.75;;;2.17;;
34359;SDS011;20624;55.870;26.506;2023-04-24T01:46:33;7.28;;;2.35;;
34359;SDS011;20624;55.870;26.506;2023-04-24T01:49:02;7.57;;;2.38;;
34359;SDS011;20624;55.870;26.506;2023-04-24T01:51:30;8.38;;;2.08;;
34359;SDS011;20624;55.870;26.506;2023-04-24T01:53:57;9.60;;;2.13;;
34359;SDS011;20624;55.870;26.506;2023-04-24T01:56:25;12.18;;;2.03;;
34359;SDS011;20624;55.870;26.506;2023-04-24T01:58:56;11.95;;;2.47;;
34359;SDS011;20624;55.870;26.506;2023-04-24T02:01:24;6.50;;;1.92;;
34359;SDS011;20624;55.870;26.506;2023-04-24T02:03:53;6.72;;;2.03;;
34359;SDS011;20624;55.870;26.506;2023-04-24T02:06:21;4.80;;;1.63;;
34359;SDS011;20624;55.870;26.506;2023-04-24T02:08:49;4.68;;;1.45;;
34359;SDS011;20624;55.870;26.506;2023-04-24T02:11:17;3.47;;;1.55;;
34359;SDS011;20624;55.870;26.506;2023-04-24T02:13:45;7.75;;;2.17;;
34359;SDS011;20624;55.870;26.506;2023-04-24T02:16:15;8.70;;;2.00;;
34359;SDS011;20624;55.870;26.506;2023-04-24T02:18:43;4.82;;;1.67;;
34359;SDS011;20624;55.870;26.506;2023-04-24T02:21:11;4.90;;;1.60;;
34359;SDS011;20624;55.870;26.506;2023-04-24T02:23:39;5.05;;;1.67;;
34359;SDS011;20624;55.870;26.506;2023-04-24T02:26:07;6.00;;;1.70;;
34359;SDS011;20624;55.870;26.506;2023-04-24T02:28:34;5.53;;;1.73;;
34359;SDS011;20624;55.870;26.506;2023-04-24T02:31:02;12.35;;;2.53;;
34359;SDS011;20624;55.870;26.506;2023-04-24T02:33:30;9.48;;;1.88;;
34359;SDS011;20624;55.870;26.506;2023-04-24T02:35:58;5.05;;;1.35;;
34359;SDS011;20624;55.870;26.506;2023-04-24T02:38:26;8.57;;;2.22;;
34359;SDS011;20624;55.870;26.506;2023-04-24T02:40:54;7.63;;;2.15;;
34359;SDS011;20624;55.870;26.506;2023-04-24T02:43:22;8.88;;;2.10;;
34359;SDS011;20624;55.870;26.506;2023-04-24T02:45:50;5.82;;;1.65;;
34359;SDS011;20624;55.870;26.506;2023-04-24T02:48:18;9.10;;;2.45;;
34359;SDS011;20624;55.870;26.506;2023-04-24T02:50:47;3.97;;;1.40;;
34359;SDS011;20624;55.870;26.506;2023-04-24T02:53:14;14.35;;;2.67;;
34359;SDS011;20624;55.870;26.506;2023-04-24T02:55:42;10.85;;;2.35;;
34359;SDS011;20624;55.870;26.506;2023-04-24T02:58:10;8.10;;;1.83;;
34359;SDS011;20624;55.870;26.506;2023-04-24T03:00:39;6.47;;;2.00;;
34359;SDS011;20624;55.870;26.506;2023-04-24T03:03:07;5.88;;;1.70;;
34359;SDS011;20624;55.870;26.506;2023-04-24T03:05:35;4.05;;;1.75;;
34359;SDS011;20624;55.870;26.506;2023-04-24T03:08:05;8.95;;;2.03;;
34359;SDS011;20624;55.870;26.506;2023-04-24T03:10:33;5.20;;;2.05;;
34359;SDS011;20624;55.870;26.506;2023-04-24T03:13:01;5.20;;;1.80;;
34359;SDS011;20624;55.870;26.506;2023-04-24T03:15:29;6.85;;;2.03;;
34359;SDS011;20624;55.870;26.506;2023-04-24T03:17:57;4.53;;;1.60;;
34359;SDS011;20624;55.870;26.506;2023-04-24T03:20:25;3.67;;;1.60;;
34359;SDS011;20624;55.870;26.506;2023-04-24T03:22:52;6.38;;;1.80;;
34359;SDS011;20624;55.870;26.506;2023-04-24T03:25:20;4.93;;;1.80;;
34359;SDS011;20624;55.870;26.506;2023-04-24T03:27:54;10.27;;;2.08;;
34359;SDS011;20624;55.870;26.506;2023-04-24T03:30:22;6.45;;;2.00;;
34359;SDS011;20624;55.870;26.506;2023-04-24T03:32:50;5.80;;;1.48;;
34359;SDS011;20624;55.870;26.506;2023-04-24T03:35:18;3.55;;;1.42;;
34359;SDS011;20624;55.870;26.506;2023-04-24T03:37:46;12.95;;;2.20;;
34359;SDS011;20624;55.870;26.506;2023-04-24T03:40:13;8.85;;;2.17;;
34359;SDS011;20624;55.870;26.506;2023-04-24T03:42:41;7.40;;;2.45;;
34359;SDS011;20624;55.870;26.506;2023-04-24T03:45:09;7.97;;;2.30;;
34359;SDS011;20624;55.870;26.506;2023-04-24T03:47:37;12.60;;;2.25;;
34359;SDS011;20624;55.870;26.506;2023-04-24T03:50:06;5.85;;;1.85;;
34359;SDS011;20624;55.870;26.506;2023-04-24T03:52:34;7.50;;;1.80;;
34359;SDS011;20624;55.870;26.506;2023-04-24T03:55:02;8.40;;;2.10;;
34359;SDS011;20624;55.870;26.506;2023-04-24T03:57:30;10.55;;;2.33;;
34359;SDS011;20624;55.870;26.506;2023-04-24T03:59:58;8.75;;;2.22;;
34359;SDS011;20624;55.870;26.506;2023-04-24T04:02:27;6.47;;;1.98;;
34359;SDS011;20624;55.870;26.506;2023-04-24T04:04:55;14.38;;;2.90;;
34359;SDS011;20624;55.870;26.506;2023-04-24T04:07:23;5.47;;;1.85;;
34359;SDS011;20624;55.870;26.506;2023-04-24T04:09:51;4.55;;;1.73;;
34359;SDS011;20624;55.870;26.506;2023-04-24T04:12:19;7.90;;;2.17;;
34359;SDS011;20624;55.870;26.506;2023-04-24T04:14:47;6.38;;;1.77;;
34359;SDS011;20624;55.870;26.506;2023-04-24T04:17:14;5.88;;;2.10;;
34359;SDS011;20624;55.870;26.506;2023-04-24T04:19:42;8.48;;;2.13;;
34359;SDS011;20624;55.870;26.506;2023-04-24T04:22:10;10.13;;;2.53;;
34359;SDS011;20624;55.870;26.506;2023-04-24T04:24:38;5.55;;;1.88;;
34359;SDS011;20624;55.870;26.506;2023-04-24T04:27:06;8.38;;;2.33;;
34359;SDS011;20624;55.870;26.506;2023-04-24T04:29:34;10.18;;;2.13;;
34359;SDS011;20624;55.870;26.506;2023-04-24T04:32:02;9.20;;;2.55;;
34359;SDS011;20624;55.870;26.506;2023-04-24T04:34:30;6.97;;;1.90;;
34359;SDS011;20624;55.870;26.506;2023-04-24T04:36:59;15.38;;;2.40;;
34359;SDS011;20624;55.870;26.506;2023-04-24T04:39:28;11.25;;;2.20;;
34359;SDS011;20624;55.870;26.506;2023-04-24T04:41:56;8.18;;;2.03;;
34359;SDS011;20624;55.870;26.506;2023-04-24T04:44:24;7.80;;;1.83;;
34359;SDS011;20624;55.870;26.506;2023-04-24T04:46:55;16.45;;;3.42;;
34359;SDS011;20624;55.870;26.506;2023-04-24T04:49:23;10.05;;;2.25;;
34359;SDS011;20624;55.870;26.506;2023-04-24T04:51:51;16.75;;;3.42;;
34359;SDS011;20624;55.870;26.506;2023-04-24T04:54:19;18.23;;;3.47;;
34359;SDS011;20624;55.870;26.506;2023-04-24T04:56:47;35.42;;;5.80;;
34359;SDS011;20624;55.870;26.506;2023-04-24T05:01:44;17.83;;;3.47;;
34359;SDS011;20624;55.870;26.506;2023-04-24T05:04:13;40.20;;;6.75;;
34359;SDS011;20624;55.870;26.506;2023-04-24T05:06:41;10.48;;;2.78;;
34359;SDS011;20624;55.870;26.506;2023-04-24T05:09:09;16.73;;;3.35;;
34359;SDS011;20624;55.870;26.506;2023-04-24T05:11:37;25.23;;;4.57;;
34359;SDS011;20624;55.870;26.506;2023-04-24T05:14:04;25.67;;;4.63;;
34359;SDS011;20624;55.870;26.506;2023-04-24T05:16:32;14.55;;;2.90;;
34359;SDS011;20624;55.870;26.506;2023-04-24T05:19:00;19.63;;;3.67;;
34359;SDS011;20624;55.870;26.506;2023-04-24T05:21:28;14.32;;;3.10;;
34359;SDS011;20624;55.870;26.506;2023-04-24T05:23:57;29.50;;;4.78;;
34359;SDS011;20624;55.870;26.506;2023-04-24T05:26:24;13.13;;;2.80;;
34359;SDS011;20624;55.870;26.506;2023-04-24T05:28:52;22.75;;;3.78;;
34359;SDS011;20624;55.870;26.506;2023-04-24T05:31:20;12.18;;;2.85;;
34359;SDS011;20624;55.870;26.506;2023-04-24T05:33:48;26.65;;;4.78;;
34359;SDS011;20624;55.870;26.506;2023-04-24T05:36:16;23.48;;;4.18;;
34359;SDS011;20624;55.870;26.506;2023-04-24T05:38:44;56.85;;;9.18;;
34359;SDS011;20624;55.870;26.506;2023-04-24T05:41:12;37.45;;;6.10;;
34359;SDS011;20624;55.870;26.506;2023-04-24T05:43:40;51.95;;;8.23;;
34359;SDS011;20624;55.870;26.506;2023-04-24T05:46:08;48.78;;;7.93;;
34359;SDS011;20624;55.870;26.506;2023-04-24T05:48:36;70.45;;;11.40;;
34359;SDS011;20624;55.870;26.506;2023-04-24T05:51:03;66.30;;;10.35;;
34359;SDS011;20624;55.870;26.506;2023-04-24T05:53:32;47.78;;;7.63;;
34359;SDS011;20624;55.870;26.506;2023-04-24T05:56:00;52.95;;;8.45;;
34359;SDS011;20624;55.870;26.506;2023-04-24T05:58:27;22.63;;;4.13;;
34359;SDS011;20624;55.870;26.506;2023-04-24T06:00:55;24.85;;;4.40;;
34359;SDS011;20624;55.870;26.506;2023-04-24T06:03:25;61.00;;;9.50;;
34359;SDS011;20624;55.870;26.506;2023-04-24T06:05:53;29.23;;;4.90;;
34359;SDS011;20624;55.870;26.506;2023-04-24T06:08:21;19.23;;;3.53;;
34359;SDS011;20624;55.870;26.506;2023-04-24T06:10:49;20.85;;;3.55;;
34359;SDS011;20624;55.870;26.506;2023-04-24T06:13:17;43.53;;;6.85;;
34359;SDS011;20624;55.870;26.506;2023-04-24T06:15:45;16.02;;;3.30;;
34359;SDS011;20624;55.870;26.506;2023-04-24T06:18:13;22.45;;;4.28;;
34359;SDS011;20624;55.870;26.506;2023-04-24T06:20:41;18.20;;;3.45;;
34359;SDS011;20624;55.870;26.506;2023-04-24T06:23:12;36.40;;;6.13;;
34359;SDS011;20624;55.870;26.506;2023-04-24T06:25:40;25.83;;;4.78;;
34359;SDS011;20624;55.870;26.506;2023-04-24T06:28:09;20.50;;;3.72;;
34359;SDS011;20624;55.870;26.506;2023-04-24T06:30:36;23.42;;;3.95;;
34359;SDS011;20624;55.870;26.506;2023-04-24T06:33:04;14.85;;;3.13;;
34359;SDS011;20624;55.870;26.506;2023-04-24T06:35:46;26.23;;;4.18;;
34359;SDS011;20624;55.870;26.506;2023-04-24T06:38:14;43.33;;;7.07;;
34359;SDS011;20624;55.870;26.506;2023-04-24T06:40:42;16.52;;;3.70;;
34359;SDS011;20624;55.870;26.506;2023-04-24T06:43:11;31.65;;;6.13;;
34359;SDS011;20624;55.870;26.506;2023-04-24T06:45:41;19.42;;;2.95;;
34359;SDS011;20624;55.870;26.506;2023-04-24T06:48:10;29.52;;;4.47;;
34359;SDS011;20624;55.870;26.506;2023-04-24T06:50:38;26.40;;;4.55;;
34359;SDS011;20624;55.870;26.506;2023-04-24T06:53:06;28.08;;;4.15;;
34359;SDS011;20624;55.870;26.506;2023-04-24T06:55:35;17.13;;;2.70;;
34359;SDS011;20624;55.870;26.506;2023-04-24T06:58:03;19.10;;;3.33;;
34359;SDS011;20624;55.870;26.506;2023-04-24T07:00:31;18.67;;;2.88;;
34359;SDS011;20624;55.870;26.506;2023-04-24T07:02:59;11.80;;;2.17;;
34359;SDS011;20624;55.870;26.506;2023-04-24T07:05:27;23.85;;;3.85;;
34359;SDS011;20624;55.870;26.506;2023-04-24T07:07:56;42.45;;;6.93;;
34359;SDS011;20624;55.870;26.506;2023-04-24T07:10:24;31.60;;;4.95;;
34359;SDS011;20624;55.870;26.506;2023-04-24T07:12:55;26.52;;;4.70;;
34359;SDS011;20624;55.870;26.506;2023-04-24T07:15:23;24.08;;;3.63;;
34359;SDS011;20624;55.870;26.506;2023-04-24T07:17:51;30.08;;;4.90;;
34359;SDS011;20624;55.870;26.506;2023-04-24T07:20:19;39.30;;;6.43;;
34359;SDS011;20624;55.870;26.506;2023-04-24T07:22:47;23.42;;;4.25;;
34359;SDS011;20624;55.870;26.506;2023-04-24T07:25:15;25.52;;;4.13;;
34359;SDS011;20624;55.870;26.506;2023-04-24T07:27:43;31.20;;;4.97;;
34359;SDS011;20624;55.870;26.506;2023-04-24T07:30:11;30.00;;;5.22;;
34359;SDS011;20624;55.870;26.506;2023-04-24T07:32:39;25.77;;;4.63;;
34359;SDS011;20624;55.870;26.506;2023-04-24T07:35:07;27.27;;;4.20;;
34359;SDS011;20624;55.870;26.506;2023-04-24T07:37:36;33.53;;;5.82;;
34359;SDS011;20624;55.870;26.506;2023-04-24T07:40:04;26.13;;;4.30;;
34359;SDS011;20624;55.870;26.506;2023-04-24T07:42:32;20.48;;;3.60;;
34359;SDS011;20624;55.870;26.506;2023-04-24T07:45:01;23.88;;;4.15;;
34359;SDS011;20624;55.870;26.506;2023-04-24T07:47:29;35.15;;;5.60;;
34359;SDS011;20624;55.870;26.506;2023-04-24T07:49:57;64.28;;;9.80;;
34359;SDS011;20624;55.870;26.506;2023-04-24T07:52:24;36.15;;;5.80;;
34359;SDS011;20624;55.870;26.506;2023-04-24T07:54:54;22.27;;;3.90;;
34359;SDS011;20624;55.870;26.506;2023-04-24T07:57:25;25.67;;;3.95;;
34359;SDS011;20624;55.870;26.506;2023-04-24T07:59:53;18.67;;;3.00;;
34359;SDS011;20624;55.870;26.506;2023-04-24T08:02:21;20.35;;;3.70;;
34359;SDS011;20624;55.870;26.506;2023-04-24T08:04:53;27.02;;;4.63;;
34359;SDS011;20624;55.870;26.506;2023-04-24T08:07:25;29.17;;;4.45;;
34359;SDS011;20624;55.870;26.506;2023-04-24T08:09:53;34.08;;;6.03;;
34359;SDS011;20624;55.870;26.506;2023-04-24T08:12:21;25.02;;;4.35;;
34359;SDS011;20624;55.870;26.506;2023-04-24T08:14:49;23.73;;;4.32;;
34359;SDS011;20624;55.870;26.506;2023-04-24T08:17:17;21.23;;;3.85;;
34359;SDS011;20624;55.870;26.506;2023-04-24T08:19:45;30.42;;;4.93;;
34359;SDS011;20624;55.870;26.506;2023-04-24T08:22:17;46.42;;;6.38;;
34359;SDS011;20624;55.870;26.506;2023-04-24T08:24:45;24.75;;;4.68;;
34359;SDS011;20624;55.870;26.506;2023-04-24T08:27:13;32.30;;;5.50;;
34359;SDS011;20624;55.870;26.506;2023-04-24T08:29:43;41.00;;;6.78;;
34359;SDS011;20624;55.870;26.506;2023-04-24T08:32:11;30.35;;;5.05;;
34359;SDS011;20624;55.870;26.506;2023-04-24T08:34:39;18.17;;;3.13;;
34359;SDS011;20624;55.870;26.506;2023-04-24T08:37:07;46.67;;;7.47;;
34359;SDS011;20624;55.870;26.506;2023-04-24T08:39:35;61.00;;;9.88;;
34359;SDS011;20624;55.870;26.506;2023-04-24T08:42:04;67.53;;;10.95;;
34359;SDS011;20624;55.870;26.506;2023-04-24T08:44:35;70.38;;;11.25;;
34359;SDS011;20624;55.870;26.506;2023-04-24T08:47:03;31.60;;;5.40;;
34359;SDS011;20624;55.870;26.506;2023-04-24T08:49:31;70.65;;;11.02;;
34359;SDS011;20624;55.870;26.506;2023-04-24T08:51:59;23.40;;;3.75;;
34359;SDS011;20624;55.870;26.506;2023-04-24T08:54:28;71.05;;;11.35;;
34359;SDS011;20624;55.870;26.506;2023-04-24T08:56:59;55.58;;;8.95;;
34359;SDS011;20624;55.870;26.506;2023-04-24T08:59:27;52.15;;;8.20;;
34359;SDS011;20624;55.870;26.506;2023-04-24T09:01:56;25.65;;;4.38;;
34359;SDS011;20624;55.870;26.506;2023-04-24T09:04:25;24.27;;;4.57;;
34359;SDS011;20624;55.870;26.506;2023-04-24T09:06:57;24.30;;;4.72;;
34359;SDS011;20624;55.870;26.506;2023-04-24T09:09:25;55.80;;;9.63;;
34359;SDS011;20624;55.870;26.506;2023-04-24T09:11:52;22.23;;;3.97;;
34359;SDS011;20624;55.870;26.506;2023-04-24T09:14:22;38.28;;;6.10;;
34359;SDS011;20624;55.870;26.506;2023-04-24T09:16:51;24.08;;;3.88;;
34359;SDS011;20624;55.870;26.506;2023-04-24T09:19:28;14.80;;;2.45;;
34359;SDS011;20624;55.870;26.506;2023-04-24T09:21:56;37.65;;;5.70;;
34359;SDS011;20624;55.870;26.506;2023-04-24T09:24:24;52.78;;;8.38;;
34359;SDS011;20624;55.870;26.506;2023-04-24T09:26:58;22.67;;;4.15;;
34359;SDS011;20624;55.870;26.506;2023-04-24T09:29:27;36.42;;;6.22;;
34359;SDS011;20624;55.870;26.506;2023-04-24T09:31:55;37.85;;;5.95;;
34359;SDS011;20624;55.870;26.506;2023-04-24T09:34:23;16.50;;;2.83;;
34359;SDS011;20624;55.870;26.506;2023-04-24T09:36:51;32.55;;;5.32;;
34359;SDS011;20624;55.870;26.506;2023-04-24T09:39:20;25.25;;;4.60;;
34359;SDS011;20624;55.870;26.506;2023-04-24T09:41:51;30.77;;;5.13;;
34359;SDS011;20624;55.870;26.506;2023-04-24T09:44:22;19.92;;;3.17;;
34359;SDS011;20624;55.870;26.506;2023-04-24T09:46:54;25.48;;;4.90;;
34359;SDS011;20624;55.870;26.506;2023-04-24T09:49:23;59.65;;;9.52;;
34359;SDS011;20624;55.870;26.506;2023-04-24T09:51:51;69.93;;;10.45;;
34359;SDS011;20624;55.870;26.506;2023-04-24T09:54:20;59.72;;;9.50;;
34359;SDS011;20624;55.870;26.506;2023-04-24T09:56:51;22.20;;;4.03;;
34359;SDS011;20624;55.870;26.506;2023-04-24T09:59:19;30.90;;;5.30;;
34359;SDS011;20624;55.870;26.506;2023-04-24T10:01:47;45.63;;;7.50;;
34359;SDS011;20624;55.870;26.506;2023-04-24T10:04:19;58.60;;;9.35;;
34359;SDS011;20624;55.870;26.506;2023-04-24T10:06:48;43.47;;;7.25;;
34359;SDS011;20624;55.870;26.506;2023-04-24T10:09:16;29.90;;;5.03;;
34359;SDS011;20624;55.870;26.506;2023-04-24T10:11:45;17.60;;;2.97;;
34359;SDS011;20624;55.870;26.506;2023-04-24T10:14:14;22.17;;;4.00;;
34359;SDS011;20624;55.870;26.506;2023-04-24T10:16:42;21.70;;;3.67;;
34359;SDS011;20624;55.870;26.506;2023-04-24T10:19:10;20.35;;;3.63;;
34359;SDS011;20624;55.870;26.506;2023-04-24T10:21:40;24.98;;;4.15;;
34359;SDS011;20624;55.870;26.506;2023-04-24T10:24:15;15.50;;;2.78;;
34359;SDS011;20624;55.870;26.506;2023-04-24T10:26:43;16.40;;;2.95;;
34359;SDS011;20624;55.870;26.506;2023-04-24T10:29:11;17.75;;;2.97;;
34359;SDS011;20624;55.870;26.506;2023-04-24T10:31:42;19.08;;;3.38;;
34359;SDS011;20624;55.870;26.506;2023-04-24T10:34:13;18.95;;;3.05;;
34359;SDS011;20624;55.870;26.506;2023-04-24T10:36:43;34.72;;;5.72;;
34359;SDS011;20624;55.870;26.506;2023-04-24T10:39:14;12.40;;;2.60;;
34359;SDS011;20624;55.870;26.506;2023-04-24T10:41:43;26.30;;;4.30;;
34359;SDS011;20624;55.870;26.506;2023-04-24T10:44:16;25.92;;;4.30;;
34359;SDS011;20624;55.870;26.506;2023-04-24T10:46:45;16.25;;;2.55;;
34359;SDS011;20624;55.870;26.506;2023-04-24T10:49:13;22.75;;;4.00;;
34359;SDS011;20624;55.870;26.506;2023-04-24T10:51:48;19.73;;;3.13;;
34359;SDS011;20624;55.870;26.506;2023-04-24T10:54:26;28.17;;;4.75;;
34359;SDS011;20624;55.870;26.506;2023-04-24T10:57:28;26.65;;;4.25;;
34359;SDS011;20624;55.870;26.506;2023-04-24T11:02:17;39.33;;;6.03;;
34359;SDS011;20624;55.870;26.506;2023-04-24T11:04:46;20.52;;;3.28;;
34359;SDS011;20624;55.870;26.506;2023-04-24T11:07:19;19.00;;;3.45;;
34359;SDS011;20624;55.870;26.506;2023-04-24T11:09:49;29.35;;;5.00;;
34359;SDS011;20624;55.870;26.506;2023-04-24T11:17:29;21.80;;;3.55;;
34359;SDS011;20624;55.870;26.506;2023-04-24T11:20:05;27.35;;;4.35;;
34359;SDS011;20624;55.870;26.506;2023-04-24T11:22:54;8.35;;;1.42;;
34359;SDS011;20624;55.870;26.506;2023-04-24T11:25:24;17.38;;;3.00;;
34359;SDS011;20624;55.870;26.506;2023-04-24T11:28:02;22.83;;;3.70;;
34359;SDS011;20624;55.870;26.506;2023-04-24T11:30:30;52.72;;;8.25;;
34359;SDS011;20624;55.870;26.506;2023-04-24T11:33:03;58.65;;;9.07;;
34359;SDS011;20624;55.870;26.506;2023-04-24T11:35:36;25.75;;;4.55;;
34359;SDS011;20624;55.870;26.506;2023-04-24T11:38:06;22.33;;;3.47;;
34359;SDS011;20624;55.870;26.506;2023-04-24T11:40:37;67.00;;;10.50;;
34359;SDS011;20624;55.870;26.506;2023-04-24T11:43:06;21.67;;;4.18;;
34359;SDS011;20624;55.870;26.506;2023-04-24T11:45:37;19.70;;;3.45;;
34359;SDS011;20624;55.870;26.506;2023-04-24T11:48:05;48.15;;;7.75;;
34359;SDS011;20624;55.870;26.506;2023-04-24T11:50:35;53.97;;;8.07;;
34359;SDS011;20624;55.870;26.506;2023-04-24T11:53:03;51.08;;;8.35;;
34359;SDS011;20624;55.870;26.506;2023-04-24T11:55:31;29.67;;;4.68;;
34359;SDS011;20624;55.870;26.506;2023-04-24T11:57:59;24.75;;;4.13;;
34359;SDS011;20624;55.870;26.506;2023-04-24T12:00:29;21.67;;;3.83;;
34359;SDS011;20624;55.870;26.506;2023-04-24T12:03:04;60.97;;;9.63;;
34359;SDS011;20624;55.870;26.506;2023-04-24T12:05:33;11.25;;;2.17;;
34359;SDS011;20624;55.870;26.506;2023-04-24T12:08:01;23.65;;;4.07;;
34359;SDS011;20624;55.870;26.506;2023-04-24T12:10:30;18.83;;;2.90;;
34359;SDS011;20624;55.870;26.506;2023-04-24T12:12:58;21.20;;;3.47;;
34359;SDS011;20624;55.870;26.506;2023-04-24T12:15:26;25.17;;;3.78;;
34359;SDS011;20624;55.870;26.506;2023-04-24T12:17:55;23.90;;;4.05;;
34359;SDS011;20624;55.870;26.506;2023-04-24T12:20:27;19.73;;;3.15;;
34359;SDS011;20624;55.870;26.506;2023-04-24T12:22:58;22.75;;;3.97;;
34359;SDS011;20624;55.870;26.506;2023-04-24T12:25:29;21.33;;;3.53;;
34359;SDS011;20624;55.870;26.506;2023-04-24T12:30:32;12.57;;;2.47;;
34359;SDS011;20624;55.870;26.506;2023-04-24T12:33:01;37.42;;;6.32;;
34359;SDS011;20624;55.870;26.506;2023-04-24T12:35:33;18.85;;;3.13;;
34359;SDS011;20624;55.870;26.506;2023-04-24T12:38:09;24.05;;;4.07;;
34359;SDS011;20624;55.870;26.506;2023-04-24T12:40:41;24.90;;;4.25;;
34359;SDS011;20624;55.870;26.506;2023-04-24T12:43:16;24.27;;;3.78;;
34359;SDS011;20624;55.870;26.506;2023-04-24T12:45:44;15.13;;;2.80;;
34359;SDS011;20624;55.870;26.506;2023-04-24T12:48:12;15.95;;;2.97;;
34359;SDS011;20624;55.870;26.506;2023-04-24T12:50:44;18.02;;;3.33;;
34359;SDS011;20624;55.870;26.506;2023-04-24T12:55:41;43.50;;;6.85;;
34359;SDS011;20624;55.870;26.506;2023-04-24T12:58:09;43.95;;;7.68;;
34359;SDS011;20624;55.870;26.506;2023-04-24T13:00:37;43.58;;;7.18;;
34359;SDS011;20624;55.870;26.506;2023-04-24T13:03:05;38.83;;;6.30;;
34359;SDS011;20624;55.870;26.506;2023-04-24T13:05:34;27.50;;;3.75;;
34359;SDS011;20624;55.870;26.506;2023-04-24T13:08:02;13.50;;;2.58;;
34359;SDS011;20624;55.870;26.506;2023-04-24T13:10:30;19.65;;;3.47;;
34359;SDS011;20624;55.870;26.506;2023-04-24T13:13:01;11.48;;;2.05;;
34359;SDS011;20624;55.870;26.506;2023-04-24T13:15:29;11.40;;;2.35;;
34359;SDS011;20624;55.870;26.506;2023-04-24T13:17:57;8.98;;;1.95;;
34359;SDS011;20624;55.870;26.506;2023-04-24T13:20:25;14.25;;;2.58;;
34359;SDS011;20624;55.870;26.506;2023-04-24T13:22:53;18.73;;;3.35;;
34359;SDS011;20624;55.870;26.506;2023-04-24T13:25:21;13.55;;;2.80;;
34359;SDS011;20624;55.870;26.506;2023-04-24T13:27:50;13.63;;;2.70;;
34359;SDS011;20624;55.870;26.506;2023-04-24T13:30:17;12.82;;;2.53;;
34359;SDS011;20624;55.870;26.506;2023-04-24T13:32:45;46.00;;;7.47;;
34359;SDS011;20624;55.870;26.506;2023-04-24T13:35:14;45.67;;;7.65;;
34359;SDS011;20624;55.870;26.506;2023-04-24T13:37:42;39.03;;;6.43;;
34359;SDS011;20624;55.870;26.506;2023-04-24T13:40:10;27.65;;;4.82;;
34359;SDS011;20624;55.870;26.506;2023-04-24T13:42:41;10.43;;;2.22;;
34359;SDS011;20624;55.870;26.506;2023-04-24T13:45:09;12.25;;;2.10;;
34359;SDS011;20624;55.870;26.506;2023-04-24T13:47:49;24.58;;;4.20;;
34359;SDS011;20624;55.870;26.506;2023-04-24T13:50:18;16.00;;;2.53;;
34359;SDS011;20624;55.870;26.506;2023-04-24T13:52:46;13.30;;;2.60;;
34359;SDS011;20624;55.870;26.506;2023-04-24T13:55:14;23.80;;;4.13;;
34359;SDS011;20624;55.870;26.506;2023-04-24T13:57:42;16.30;;;2.95;;
34359;SDS011;20624;55.870;26.506;2023-04-24T14:00:10;14.15;;;2.30;;
34359;SDS011;20624;55.870;26.506;2023-04-24T14:05:07;18.77;;;3.20;;
34359;SDS011;20624;55.870;26.506;2023-04-24T14:07:37;16.40;;;2.92;;
34359;SDS011;20624;55.870;26.506;2023-04-24T14:10:05;13.23;;;2.55;;
34359;SDS011;20624;55.870;26.506;2023-04-24T14:12:34;17.67;;;3.42;;
34359;SDS011;20624;55.870;26.506;2023-04-24T14:15:03;6.82;;;1.67;;
34359;SDS011;20624;55.870;26.506;2023-04-24T14:17:31;19.85;;;3.03;;
34359;SDS011;20624;55.870;26.506;2023-04-24T14:19:59;9.98;;;2.08;;
34359;SDS011;20624;55.870;26.506;2023-04-24T14:22:30;9.88;;;1.98;;
34359;SDS011;20624;55.870;26.506;2023-04-24T14:25:01;18.10;;;3.38;;
34359;SDS011;20624;55.870;26.506;2023-04-24T14:27:28;6.53;;;1.08;;
34359;SDS011;20624;55.870;26.506;2023-04-24T14:29:56;12.60;;;2.38;;
34359;SDS011;20624;55.870;26.506;2023-04-24T14:32:24;16.45;;;2.55;;
34359;SDS011;20624;55.870;26.506;2023-04-24T14:34:52;7.55;;;1.48;;
34359;SDS011;20624;55.870;26.506;2023-04-24T14:37:20;3.70;;;1.00;;
34359;SDS011;20624;55.870;26.506;2023-04-24T14:39:48;17.15;;;2.33;;
34359;SDS011;20624;55.870;26.506;2023-04-24T14:42:36;7.60;;;1.52;;
34359;SDS011;20624;55.870;26.506;2023-04-24T14:45:04;8.32;;;1.92;;
34359;SDS011;20624;55.870;26.506;2023-04-24T14:47:32;5.50;;;1.23;;
34359;SDS011;20624;55.870;26.506;2023-04-24T14:50:00;11.07;;;2.17;;
34359;SDS011;20624;55.870;26.506;2023-04-24T14:52:29;4.68;;;1.02;;